Merriam, Kansas
Current Conditions -  °F | °C
As of 10:54 AM on Friday 31 Oct 2014 (Local Time) from KMKC Reporting Station
Clear Clear  
Wind Chill: 33°   Ceiling: Unl
Heat Index: 40°   Visibility: 10mi
Dew Point: 19°   Wind: 12mph
Humidity: 43%   Direction: 20°NNE
Pressure: 30.51"   Gusts: NA
Location:  38.993°N, 94.6774°W
Report Text: KMKC 311554Z 02010KT 10SM CLR 04/M07 A3051 RMK AO2 SLP332 T00441072
Loading
Personal Weather Stations






























Interactive Weather Map New forecast layout! Learn more

10-Day Weather Forecast

Advertisements
Track Severe Weather on mobile